Flight Track Log - Related Links

Times and Time Zones

All times are in EDT time to prevent confusion due to time zone crossing. See the SWA1435 flight status page for this flight to view local times or setup timezone preferences in your user account.

Time Position Orientation Groundspeed Altitude Reporting Facility
EDT Latitude Longitude Course Direction KTS MPH feet Rate Location/Type
Fri 09:23:44 AM 38.7511 -90.3231 305° West 130 150 2,700  Level FAA TRACON SMA TRACON (SMA)
Fri 09:24:04 AM 38.7594 -90.3383 305° West 160 184 3,400 3,073 Climbing FAA TRACON SMA TRACON (SMA)
Fri 09:24:25 AM 38.7697 -90.3600 301° West 184 212 4,800 3,073 Climbing FAA TRACON SMA TRACON (SMA)
Fri 09:24:45 AM 38.7786 -90.3803 299° West 202 232 5,500 3,077 Climbing FAA TRACON SMA TRACON (SMA)
Fri 09:25:04 AM 38.7892 -90.4014 303° West 225 259 6,800 4,200 Climbing FAA TRACON SMA TRACON (SMA)
Fri 09:25:25 AM 38.8028 -90.4294 302° West 241 277 8,300 3,951 Climbing FAA TRACON SMA TRACON (SMA)
Fri 09:25:45 AM 38.8142 -90.4525 302° West 248 285 9,500 3,600 Climbing FAA TRACON SMA TRACON (SMA)
Fri 09:26:05 AM 38.8261 -90.4761 303° West 254 292 10,700 2,769 Climbing FAA TRACON SMA TRACON (SMA)
Fri 09:26:24 AM 38.8422 -90.5092 302° West 278 320 11,300 2,400 Climbing FAA TRACON SMA TRACON (SMA)
Fri 09:26:45 AM 38.8569 -90.5378 303° West 304 350 12,300 3,073 Climbing FAA TRACON SMA TRACON (SMA)
Fri 09:27:05 AM 38.8719 -90.5672 303° West 319 367 13,400 3,846 Climbing FAA TRACON SMA TRACON (SMA)
Fri 09:27:24 AM 38.8911 -90.6050 303° West 330 380 14,800 3,900 Climbing FAA TRACON SMA TRACON (SMA)
Fri 09:27:45 AM 38.9072 -90.6356 304° West 334 384 16,000 3,366 Climbing FAA TRACON SMA TRACON (SMA)
Fri 09:28:05 AM 38.9228 -90.6669 303° West 338 389 17,100 4,000 Climbing FAA TRACON SMA TRACON (SMA)
Fri 09:28:24 AM 38.9428 -90.7067 303° West 343 395 18,600 3,750 Climbing FAA TRACON SMA TRACON (SMA)
Fri 09:28:45 AM 38.9589 -90.7389 303° West 348 400 19,600 2,927 Climbing FAA TRACON SMA TRACON (SMA)
Fri 09:29:05 AM 38.9744 -90.7722 301° West 352 405 20,600 3,231 Climbing FAA TRACON SMA TRACON (SMA)
Fri 09:29:24 AM 38.9953 -90.8128 303° West 356 410 21,700 3,077 Climbing FAA TRACON SMA TRACON (SMA)
Fri 09:29:44 AM 39.0125 -90.8467 303° West 362 417 22,600 2,488 Climbing FAA TRACON SMA TRACON (SMA)
Fri 09:30:05 AM 39.0294 -90.8806 303° West 367 422 23,400 2,488 Climbing FAA TRACON SMA TRACON (SMA)
Fri 09:30:25 AM 39.0522 -90.9233 304° West 376 433 24,300 2,462 Climbing FAA TRACON SMA TRACON (SMA)
Fri 09:30:44 AM 39.0706 -90.9583 304° West 382 440 25,000 2,100 Climbing FAA TRACON SMA TRACON (SMA)
Fri 09:31:05 AM 39.0878 -90.9953 301° West 388 447 25,700 2,045 Climbing FAA TRACON SMA TRACON (SMA)
Fri 09:31:28 AM 39.1100 -91.0419 302° West 396 456 26,500 2,233 Climbing FAA TRACON SMA TRACON (SMA)
Fri 09:31:48 AM 39.1308 -91.0894 299° West 398 458 27,300 2,167 Climbing FAA TRACON SMA TRACON (SMA)
Fri 09:32:04 AM 39.1444 -91.1183 301° West 403 464 27,800 1,833 Climbing FAA TRACON SMA TRACON (SMA)
Fri 09:32:24 AM 39.1606 -91.1578 298° West 405 466 28,400 1,543 Climbing FAA TRACON SMA TRACON (SMA)
Fri 09:32:39 AM 39.1678 -91.2319 277° West 400 460 28,700 2,289 Climbing Kansas City Center
Fri 09:33:40 AM 39.2192 -91.3611 297° West 406 467 31,300 1,983 Climbing Kansas City Center
Fri 09:34:40 AM 39.2689 -91.4900 297° West 403 464 32,700 1,306 Climbing Kansas City Center
Fri 09:35:44 AM 39.3319 -91.6489 297° West 410 472 34,000 629 Climbing Kansas City Center
Fri 09:36:44 AM 39.3828 -91.7828 296° West 414 476 34,000  Level Kansas City Center
Fri 09:37:46 AM 39.4336 -91.9122 297° West 413 475 34,000  Level Kansas City Center
Fri 09:38:47 AM 39.4836 -92.0439 296° West 409 471 34,000  Level Kansas City Center
Fri 09:39:51 AM 39.5347 -92.1750 297° West 409 471 34,000  Level Kansas City Center
Fri 09:40:52 AM 39.5847 -92.3042 297° West 407 468 34,000  Level Kansas City Center
Fri 09:41:54 AM 39.6344 -92.4344 296° West 404 465 34,000  Level Kansas City Center
Fri 09:42:55 AM 39.7158 -92.5789 306° West 423 487 34,000  Level Kansas City Center
Fri 09:43:58 AM 39.7892 -92.6906 311° West 412 474 34,000  Level Kansas City Center
Fri 09:44:59 AM 39.8653 -92.8067 311° West 418 481 34,000  Level Kansas City Center
Fri 09:46:02 AM 39.9389 -92.9219 310° West 415 478 34,000  Level Kansas City Center
Fri 09:47:03 AM 40.0125 -93.0381 310° West 413 475 34,000  Level Kansas City Center
Fri 09:48:04 AM 40.0856 -93.1536 310° West 414 476 34,000  Level Kansas City Center
Fri 09:49:07 AM 40.1575 -93.2669 310° West 408 470 34,000  Level Kansas City Center
Fri 09:50:08 AM 40.2450 -93.4064 309° West 411 473 34,000  Level Kansas City Center
Fri 09:51:11 AM 40.3192 -93.5233 310° West 415 478 34,000  Level Kansas City Center
Fri 09:52:13 AM 40.3914 -93.6403 309° West 415 478 34,000  Level Kansas City Center
Fri 09:53:13 AM 40.4647 -93.7575 309° West 417 480 34,000  Level Kansas City Center
Fri 09:54:17 AM 40.5383 -93.8744 310° West 417 480 34,000 -387 Level Kansas City Center
Fri 09:55:17 AM 40.6000 -93.9964 304° West 410 472 33,200 -1,686 Descending Kansas City Center
Fri 09:56:18 AM 40.6294 -94.1631 283° West 394 453 30,600 -2,186 Descending Kansas City Center
Fri 09:57:26 AM 40.6492 -94.2978 281° West 383 441 28,500 -1,892 Descending Minneapolis Center
Fri 09:58:28 AM 40.6697 -94.4250 282° West 367 422 26,500 -2,081 Descending Minneapolis Center
Fri 09:59:30 AM 40.6931 -94.5700 282° West 345 397 24,200 -2,098 Descending Minneapolis Center
Fri 10:00:31 AM 40.7106 -94.6708 283° West 337 388 22,200 -2,195 Descending Minneapolis Center
Fri 10:01:33 AM 40.7322 -94.8117 282° West 327 376 19,700 -2,338 Descending Minneapolis Center
Fri 10:01:48 AM 40.7528 -94.8308 325° Northwest 324 373 19,200 -1,770 Descending Minneapolis Center
Fri 10:02:34 AM 40.7514 -94.9225 269° West 316 364 17,900 -1,889 Descending Minneapolis Center
Fri 10:03:36 AM 40.7675 -95.0300 281° West 303 349 15,800 -2,000 Descending Minneapolis Center
Fri 10:04:37 AM 40.8167 -95.1258 304° West 283 326 13,800 -2,016 Descending Minneapolis Center
Fri 10:05:38 AM 40.8622 -95.2056 307° West 271 312 11,700 -2,016 Descending Minneapolis Center
Fri 10:06:39 AM 40.9075 -95.2828 308° West 264 304 9,700 -1,835 Descending Minneapolis Center
Fri 10:07:39 AM 40.9483 -95.3522 308° West 244 281 8,000 -1,785 Descending Minneapolis Center
Fri 10:08:40 AM 40.9867 -95.4219 306° West 227 261 6,100 -1,686 Descending Minneapolis Center
Fri 10:09:40 AM 41.0247 -95.4864 308° West 221 254 4,600 -1,323 Descending Minneapolis Center
Fri 10:10:47 AM 41.0606 -95.5561 304° West 223 257 3,300 -844 Descending Minneapolis Center
Fri 10:11:48 AM 41.1006 -95.6156 312° West 200 230 2,800 -248 Descending Minneapolis Center
Fri 10:12:48 AM 41.1339 -95.6725 308° West 191 220 2,800  Level Minneapolis Center
Fri 10:13:43 AM 41.1622 -95.7217 307° West 177 204 2,800  Level Minneapolis Center
Fri 10:14:43 AM 41.1906 -95.7681 309° West 166 191 2,800  Level Minneapolis Center
Fri 10:15:44 AM 41.2167 -95.8150 306° West 146 168 2,800 -310 Level Minneapolis Center
Fri 10:16:39 AM 41.2436 -95.8422 323° Northwest 123 142 2,200 -575 Descending Minneapolis Center
Fri 10:16:57 AM 41.2475 -95.8431 351° North 148 170 2,100 -700 Descending Minneapolis Center
Fri 10:17:39 AM 41.2706 -95.8697 319° Northwest 124 143 1,500 -774 Descending Minneapolis Center
Fri 10:17:59 AM 41.2806 -95.8739 343° North 130 150 1,300 -366 Descending Minneapolis Center
Fri 10:19:01 AM 41.3072 -95.8994 324° Northwest 128 147 1,000 -290 Descending Minneapolis Center

Login

Don't have an account? Register now (free) for customized features, flight alerts, and more!